Time;durP1;ratioP1;P1;durP2;ratioP2;P2;SDS_P1;SDS_P2;PMS_P1;PMS_P2;Temp;Humidity;BMP_temperature;BMP_pressure;BME280_temperature;BME280_humidity;BME280_pressure;Samples;Min_cycle;Max_cycle;Signal;HPM_P1;HPM_P2
2022/05/12 04:26:11;;;;;;;12.32;11.02;;;;;;;;;;5594850;23;20058;-84
2022/05/12 04:28:37;;;;;;;12.52;11.32;;;;;;;;;;4912102;29;20089;-83
2022/05/12 04:31:03;;;;;;;13.82;12.40;;;;;;;;;;4916281;29;20032;-82
2022/05/12 04:36:15;;;;;;;13.88;12.30;;;;;;;;;;4919998;29;20042;-83
2022/05/12 04:38:41;;;;;;;16.55;12.52;;;;;;;;;;4919799;29;20083;-83
2022/05/12 04:41:08;;;;;;;13.65;12.35;;;;;;;;;;4918484;29;20449;-83
2022/05/12 04:43:34;;;;;;;13.18;11.65;;;;;;;;;;4918540;29;20031;-83
2022/05/12 04:46:00;;;;;;;12.93;11.63;;;;;;;;;;4919491;29;20032;-83
2022/05/12 04:48:29;;;;;;;12.80;11.50;;;;;;;;;;4918589;29;20024;-83
2022/05/12 04:50:56;;;;;;;13.38;11.75;;;;;;;;;;4918259;29;20088;-84
2022/05/12 04:53:22;;;;;;;13.05;11.20;;;;;;;;;;4918536;29;20071;-84
2022/05/12 04:55:48;;;;;;;12.70;11.40;;;;;;;;;;4918489;29;20032;-85
2022/05/12 04:58:14;;;;;;;12.57;10.88;;;;;;;;;;4918068;29;20045;-84
2022/05/12 05:00:43;;;;;;;12.02;10.93;;;;;;;;;;4918401;29;20028;-85
2022/05/12 05:03:10;;;;;;;13.20;9.75;;;;;;;;;;4918798;29;20040;-84
2022/05/12 05:05:36;;;;;;;13.48;9.93;;;;;;;;;;4917674;29;20028;-84
2022/05/12 05:11:14;;;;;;;11.68;9.50;;;;;;;;;;4915587;29;20510;-86
2022/05/12 05:13:43;;;;;;;10.40;9.30;;;;;;;;;;4914765;29;20032;-84
2022/05/12 05:16:10;;;;;;;12.77;9.82;;;;;;;;;;4915102;29;20481;-84
2022/05/12 05:18:37;;;;;;;12.63;9.48;;;;;;;;;;4915235;29;20035;-89
2022/05/12 05:21:08;;;;;;;10.55;8.93;;;;;;;;;;4900367;29;20047;-85
2022/05/12 05:23:34;;;;;;;14.45;9.45;;;;;;;;;;4917869;29;20024;-84
2022/05/12 05:29:03;;;;;;;11.65;9.77;;;;;;;;;;5261841;23;20059;-85
2022/05/12 05:31:29;;;;;;;12.95;9.57;;;;;;;;;;4917345;29;20115;-84
2022/05/12 05:33:55;;;;;;;12.98;9.52;;;;;;;;;;4919002;29;20032;-85
2022/05/12 05:36:22;;;;;;;14.00;8.98;;;;;;;;;;4916690;29;20080;-83
2022/05/12 05:38:48;;;;;;;15.88;8.88;;;;;;;;;;4918647;29;20107;-84
2022/05/12 05:41:14;;;;;;;11.90;9.40;;;;;;;;;;4917648;29;20036;-82
2022/05/12 05:43:40;;;;;;;9.48;8.48;;;;;;;;;;4917851;29;20395;-85
2022/05/12 05:46:07;;;;;;;13.07;10.05;;;;;;;;;;4954278;23;20028;-85
2022/05/12 05:48:39;;;;;;;11.68;9.10;;;;;;;;;;4898387;29;20073;-84
2022/05/12 05:54:04;;;;;;;;;;;;;;;;;;;;;
2022/05/12 05:56:33;;;;;;;13.13;8.73;;;;;;;;;;4892513;29;20385;-87
2022/05/12 05:59:05;;;;;;;10.93;9.57;;;;;;;;;;4900008;29;20056;-87
2022/05/12 06:01:57;;;;;;;;;;;;;;;;;;;;;
2022/05/12 06:04:42;;;;;;;13.27;10.45;;;;;;;;;;4852497;29;20049;-86
2022/05/12 06:07:33;;;;;;;13.25;10.88;;;;;;;;;;4883531;29;20530;-92
2022/05/12 06:10:03;;;;;;;12.63;10.93;;;;;;;;;;4880294;29;20478;-86
2022/05/12 06:12:51;;;;;;;15.93;12.23;;;;;;;;;;4880554;29;20152;-90
2022/05/12 06:26:53;;;;;;;16.25;14.07;;;;;;;;;;4859905;29;20116;-85
2022/05/12 06:29:22;;;;;;;14.27;12.70;;;;;;;;;;4881682;29;20072;-85
2022/05/12 06:31:48;;;;;;;15.63;13.63;;;;;;;;;;4897888;29;20044;-86
2022/05/12 06:34:17;;;;;;;19.20;13.52;;;;;;;;;;4898890;29;20030;-88
2022/05/12 06:36:44;;;;;;;13.50;12.18;;;;;;;;;;4897587;29;20116;-84
2022/05/12 06:39:10;;;;;;;15.30;13.70;;;;;;;;;;4897677;29;20067;-84
2022/05/12 06:41:36;;;;;;;15.82;13.65;;;;;;;;;;4897884;29;20068;-83
2022/05/12 06:44:04;;;;;;;15.85;13.30;;;;;;;;;;4905463;29;20477;-84
2022/05/12 06:46:33;;;;;;;14.98;13.40;;;;;;;;;;4903118;29;20057;-85
2022/05/12 06:49:02;;;;;;;15.10;12.60;;;;;;;;;;4913748;29;20033;-87
2022/05/12 06:51:45;;;;;;;13.40;11.95;;;;;;;;;;4901952;29;20405;-91
2022/05/12 06:54:12;;;;;;;15.85;13.82;;;;;;;;;;4897664;29;20047;-84
2022/05/12 06:56:44;;;;;;;27.90;13.30;;;;;;;;;;4898172;29;20044;-85
2022/05/12 06:59:13;;;;;;;17.67;13.73;;;;;;;;;;4902026;29;20032;-85
2022/05/12 07:01:40;;;;;;;19.35;13.27;;;;;;;;;;4898548;29;20033;-79
2022/05/12 07:04:06;;;;;;;16.20;12.38;;;;;;;;;;4899220;29;20469;-88
2022/05/12 07:06:32;;;;;;;17.17;13.80;;;;;;;;;;4912914;29;20134;-79
2022/05/12 07:08:58;;;;;;;16.83;15.07;;;;;;;;;;4898427;29;20131;-79
2022/05/12 07:11:24;;;;;;;16.13;13.35;;;;;;;;;;4912869;29;20029;-83
2022/05/12 07:13:51;;;;;;;17.73;13.30;;;;;;;;;;4912859;29;20116;-82
2022/05/12 07:16:17;;;;;;;16.98;11.95;;;;;;;;;;4912865;29;20072;-80
2022/05/12 07:18:43;;;;;;;12.45;11.13;;;;;;;;;;4898379;29;20076;-81
2022/05/12 07:26:42;;;;;;;16.75;12.35;;;;;;;;;;4898760;29;20043;-80
2022/05/12 07:29:10;;;;;;;16.95;11.95;;;;;;;;;;4896847;29;20025;-79
2022/05/12 07:31:36;;;;;;;13.40;10.60;;;;;;;;;;4896886;29;20033;-85
2022/05/12 07:34:02;;;;;;;14.75;11.93;;;;;;;;;;4896959;29;20532;-83
2022/05/12 07:36:30;;;;;;;14.00;12.10;;;;;;;;;;4896968;29;20055;-83
2022/05/12 07:38:56;;;;;;;12.52;11.32;;;;;;;;;;4900541;29;20441;-83
2022/05/12 07:41:23;;;;;;;12.18;10.88;;;;;;;;;;4904250;29;20037;-84
2022/05/12 07:43:51;;;;;;;13.30;11.15;;;;;;;;;;4896277;29;20032;-84
2022/05/12 07:46:18;;;;;;;11.77;10.05;;;;;;;;;;4896427;29;20025;-84
2022/05/12 07:48:44;;;;;;;13.13;10.05;;;;;;;;;;4896594;29;20025;-84
2022/05/12 07:51:11;;;;;;;12.02;9.82;;;;;;;;;;4896297;29;20043;-83
2022/05/12 07:53:37;;;;;;;10.88;9.65;;;;;;;;;;4896909;29;20052;-83
2022/05/12 07:56:07;;;;;;;12.88;8.80;;;;;;;;;;4897054;29;20032;-87
2022/05/12 07:58:33;;;;;;;11.50;8.10;;;;;;;;;;4899042;29;20462;-85
2022/05/12 08:00:59;;;;;;;11.30;8.02;;;;;;;;;;4899807;29;20069;-87
2022/05/12 08:03:28;;;;;;;7.93;5.82;;;;;;;;;;4902289;29;20028;-88
2022/05/12 08:05:54;;;;;;;8.02;6.30;;;;;;;;;;4901857;29;20025;-84
2022/05/12 08:08:21;;;;;;;6.40;5.80;;;;;;;;;;4900150;29;20060;-80
2022/05/12 08:10:47;;;;;;;6.78;5.10;;;;;;;;;;4900100;29;20063;-84
2022/05/12 08:13:16;;;;;;;9.23;5.63;;;;;;;;;;4900174;29;20036;-84
2022/05/12 08:15:43;;;;;;;8.65;5.18;;;;;;;;;;4899865;29;20469;-85
2022/05/12 08:18:09;;;;;;;9.52;4.78;;;;;;;;;;4899985;29;20033;-85
2022/05/12 08:20:35;;;;;;;7.80;4.55;;;;;;;;;;4899982;29;20029;-87
2022/05/12 08:23:02;;;;;;;6.82;5.03;;;;;;;;;;4909948;29;20055;-88
2022/05/12 08:25:29;;;;;;;7.80;5.18;;;;;;;;;;4901170;29;20032;-84
2022/05/12 08:27:55;;;;;;;4.78;3.72;;;;;;;;;;4900548;29;20052;-84
2022/05/12 08:30:21;;;;;;;7.88;4.28;;;;;;;;;;4915532;29;20035;-86
2022/05/12 08:32:47;;;;;;;6.82;5.25;;;;;;;;;;4915752;29;20029;-80
2022/05/12 08:35:14;;;;;;;7.07;4.40;;;;;;;;;;4913090;29;20033;-78
2022/05/12 08:37:40;;;;;;;6.50;4.13;;;;;;;;;;4900734;29;20108;-77
2022/05/12 08:40:08;;;;;;;5.68;5.18;;;;;;;;;;4915198;29;20122;-77
2022/05/12 08:42:53;;;;;;;10.25;5.80;;;;;;;;;;4917151;29;20060;-93
2022/05/12 08:45:21;;;;;;;8.00;4.50;;;;;;;;;;4917910;29;20060;-92
2022/05/12 08:47:51;;;;;;;8.57;4.70;;;;;;;;;;4918918;29;20081;-89
2022/05/12 08:50:26;;;;;;;6.93;4.50;;;;;;;;;;4917349;29;20032;-88
2022/05/12 08:52:53;;;;;;;5.25;4.70;;;;;;;;;;4916451;29;20056;-93
2022/05/12 08:55:20;;;;;;;6.88;5.03;;;;;;;;;;4920283;29;20068;-94
2022/05/12 08:57:52;;;;;;;7.35;6.65;;;;;;;;;;4921322;29;20045;-91
2022/05/12 09:00:19;;;;;;;6.45;4.75;;;;;;;;;;4917717;29;20549;-93
2022/05/12 09:02:54;;;;;;;6.30;4.38;;;;;;;;;;4916212;29;20036;-94
2022/05/12 09:05:27;;;;;;;6.38;4.50;;;;;;;;;;4915566;29;20052;-96
2022/05/12 09:08:03;;;;;;;5.93;4.00;;;;;;;;;;4898662;29;20104;-85
2022/05/12 09:10:39;;;;;;;7.03;3.63;;;;;;;;;;4915420;29;20537;-86
2022/05/12 09:13:12;;;;;;;6.75;4.20;;;;;;;;;;4915489;29;20032;-92
2022/05/12 09:15:41;;;;;;;7.22;3.50;;;;;;;;;;4918286;29;20025;-91
2022/05/12 09:18:26;;;;;;;5.22;2.95;;;;;;;;;;4902750;29;20032;-95
2022/05/12 09:20:53;;;;;;;7.00;3.13;;;;;;;;;;4916807;29;20496;-89
2022/05/12 09:23:22;;;;;;;4.55;2.70;;;;;;;;;;4918771;29;20061;-95
2022/05/12 09:25:52;;;;;;;7.43;2.55;;;;;;;;;;4914891;29;20043;-85
2022/05/12 09:28:27;;;;;;;3.20;2.17;;;;;;;;;;4916326;29;20386;-95
2022/05/12 09:30:55;;;;;;;3.55;2.25;;;;;;;;;;4915462;29;20474;-84
2022/05/12 09:33:35;;;;;;;6.80;2.30;;;;;;;;;;4917238;29;20025;-94
2022/05/12 09:36:04;;;;;;;5.07;2.33;;;;;;;;;;4915841;29;20024;-88
2022/05/12 09:38:31;;;;;;;4.75;2.00;;;;;;;;;;4915614;29;20032;-88
2022/05/12 09:40:57;;;;;;;6.40;2.10;;;;;;;;;;4916045;29;20044;-86
2022/05/12 09:43:31;;;;;;;4.20;2.00;;;;;;;;;;4900916;29;20052;-86
2022/05/12 09:46:00;;;;;;;6.20;2.08;;;;;;;;;;4914335;29;20037;-86
2022/05/12 09:48:27;;;;;;;3.92;2.00;;;;;;;;;;4902559;29;20039;-84
2022/05/12 09:50:53;;;;;;;8.98;2.30;;;;;;;;;;4918375;29;20063;-86
2022/05/12 09:53:38;;;;;;;6.28;2.00;;;;;;;;;;4900878;29;20125;-87
2022/05/12 09:56:19;;;;;;;5.47;1.90;;;;;;;;;;4915642;29;20020;-95
2022/05/12 09:58:50;;;;;;;4.70;2.10;;;;;;;;;;4914040;29;21289;-88
2022/05/12 10:01:19;;;;;;;6.10;2.08;;;;;;;;;;4915252;29;20054;-91
2022/05/12 10:09:23;;;;;;;7.28;2.20;;;;;;;;;;4899658;29;20136;-89
2022/05/12 10:11:55;;;;;;;3.67;1.80;;;;;;;;;;4913951;29;20033;-90
2022/05/12 10:14:34;;;;;;;2.58;1.80;;;;;;;;;;4899045;29;20036;-87
2022/05/12 10:17:02;;;;;;;3.50;1.60;;;;;;;;;;4913816;29;20039;-88
2022/05/12 10:19:29;;;;;;;4.90;1.90;;;;;;;;;;4912979;29;20025;-81
2022/05/12 10:22:06;;;;;;;13.68;2.05;;;;;;;;;;4912860;29;20049;-83
2022/05/12 10:24:50;;;;;;;3.80;1.40;;;;;;;;;;4912104;29;20025;-83
2022/05/12 10:27:35;;;;;;;7.57;2.13;;;;;;;;;;4909751;29;20555;-84
2022/05/12 10:30:21;;;;;;;4.63;1.60;;;;;;;;;;4897061;29;20024;-84
2022/05/12 10:32:53;;;;;;;6.50;1.48;;;;;;;;;;4896488;29;20033;-86
2022/05/12 10:35:29;;;;;;;3.95;1.50;;;;;;;;;;4912030;29;20047;-84
2022/05/12 10:38:14;;;;;;;3.78;1.30;;;;;;;;;;4912025;29;20067;-86
2022/05/12 10:40:49;;;;;;;6.78;1.73;;;;;;;;;;4911727;29;20040;-87
2022/05/12 10:43:30;;;;;;;6.25;1.65;;;;;;;;;;4912635;29;20442;-90
2022/05/12 10:45:59;;;;;;;6.60;1.58;;;;;;;;;;4912217;29;20036;-86
2022/05/12 10:48:44;;;;;;;5.20;1.70;;;;;;;;;;4911541;29;20029;-87
2022/05/12 10:51:21;;;;;;;5.65;1.60;;;;;;;;;;4911596;29;20044;-86
2022/05/12 10:53:54;;;;;;;7.78;1.85;;;;;;;;;;4897321;29;20020;-89
2022/05/12 10:56:44;;;;;;;6.97;1.80;;;;;;;;;;4912500;29;20039;-88
2022/05/12 10:59:32;;;;;;;4.32;1.75;;;;;;;;;;4898680;29;20056;-87
2022/05/12 11:02:12;;;;;;;8.57;1.80;;;;;;;;;;4913055;29;20044;-89
2022/05/12 11:04:43;;;;;;;5.00;1.90;;;;;;;;;;4913427;29;20092;-88
2022/05/12 11:07:13;;;;;;;4.82;1.60;;;;;;;;;;4913564;29;20120;-90
2022/05/12 11:09:47;;;;;;;6.82;1.90;;;;;;;;;;4913727;29;20430;-90
2022/05/12 11:12:27;;;;;;;7.15;1.95;;;;;;;;;;4898675;29;20032;-86
2022/05/12 11:14:56;;;;;;;6.35;1.75;;;;;;;;;;4897139;29;20044;-84
2022/05/12 11:17:31;;;;;;;7.72;2.05;;;;;;;;;;4911476;29;20039;-88
2022/05/12 11:20:25;;;;;;;8.00;2.10;;;;;;;;;;4911754;29;20028;-86
2022/05/12 11:22:54;;;;;;;4.50;1.75;;;;;;;;;;4895555;29;20052;-80
2022/05/12 11:25:25;;;;;;;6.25;2.10;;;;;;;;;;4897153;29;20028;-78
2022/05/12 11:31:11;;;;;;;5.82;2.00;;;;;;;;;;4899193;29;20040;-80
2022/05/12 11:33:39;;;;;;;3.72;2.10;;;;;;;;;;4862370;29;20486;-81
2022/05/12 11:36:05;;;;;;;7.32;2.53;;;;;;;;;;4895840;29;20081;-84
2022/05/12 11:38:38;;;;;;;11.90;2.60;;;;;;;;;;4900785;29;20541;-89
2022/05/12 11:41:05;;;;;;;7.90;2.20;;;;;;;;;;4902246;29;20032;-89
2022/05/12 11:46:21;;;;;;;4.95;2.38;;;;;;;;;;4902780;29;20109;-88
2022/05/12 11:49:11;;;;;;;3.70;2.55;;;;;;;;;;4901551;29;20035;-88
2022/05/12 11:51:55;;;;;;;6.25;2.53;;;;;;;;;;4866924;29;20037;-85
2022/05/12 11:54:31;;;;;;;4.38;2.53;;;;;;;;;;4882995;29;20161;-89
2022/05/12 11:56:58;;;;;;;8.13;2.50;;;;;;;;;;4883889;29;20029;-86
2022/05/12 11:59:28;;;;;;;3.55;2.40;;;;;;;;;;4882791;29;20153;-86
2022/05/12 12:01:57;;;;;;;4.60;2.67;;;;;;;;;;4900608;29;20032;-87
2022/05/12 12:04:42;;;;;;;5.22;2.47;;;;;;;;;;4885978;29;20111;-85
2022/05/12 12:07:13;;;;;;;4.78;2.45;;;;;;;;;;4904215;29;20055;-91
2022/05/12 12:09:39;;;;;;;6.13;2.60;;;;;;;;;;4885326;29;20037;-83
2022/05/12 12:12:06;;;;;;;3.97;2.65;;;;;;;;;;4885286;29;20021;-84
2022/05/12 12:14:45;;;;;;;8.05;2.53;;;;;;;;;;4885283;29;20056;-86
2022/05/12 12:17:30;;;;;;;5.75;2.63;;;;;;;;;;4901161;29;20481;-88
2022/05/12 12:19:58;;;;;;;6.93;2.45;;;;;;;;;;4900840;29;20039;-80
2022/05/12 12:22:26;;;;;;;5.68;2.95;;;;;;;;;;4900898;29;20041;-83
2022/05/12 12:24:59;;;;;;;5.65;2.50;;;;;;;;;;4899772;29;20029;-82
2022/05/12 12:27:43;;;;;;;6.35;2.72;;;;;;;;;;4901185;29;20060;-84
2022/05/12 12:30:24;;;;;;;8.60;2.70;;;;;;;;;;4899964;29;20028;-83
2022/05/12 12:33:08;;;;;;;11.52;2.80;;;;;;;;;;4900333;29;20197;-77
2022/05/12 12:35:55;;;;;;;4.05;2.53;;;;;;;;;;4899717;29;20025;-77
2022/05/12 12:38:39;;;;;;;8.10;2.70;;;;;;;;;;4883327;29;20057;-77
2022/05/12 12:41:06;;;;;;;5.35;2.65;;;;;;;;;;4893306;29;20040;-76
2022/05/12 12:43:35;;;;;;;3.67;2.65;;;;;;;;;;4900669;29;20029;-76
2022/05/12 12:46:13;;;;;;;5.57;2.70;;;;;;;;;;4900011;29;20021;-76
2022/05/12 12:48:44;;;;;;;5.88;2.58;;;;;;;;;;4899480;29;20089;-76
2022/05/12 12:51:10;;;;;;;4.70;2.90;;;;;;;;;;4899467;29;20477;-77
2022/05/12 12:56:35;;;;;;;5.13;2.83;;;;;;;;;;4900817;29;20080;-77
2022/05/12 12:59:06;;;;;;;2.80;2.22;;;;;;;;;;4900392;29;20029;-75
2022/05/12 13:01:51;;;;;;;5.97;2.65;;;;;;;;;;4914987;29;20040;-77
2022/05/12 13:04:28;;;;;;;4.13;2.80;;;;;;;;;;4914999;29;20036;-76
2022/05/12 13:06:57;;;;;;;5.10;2.72;;;;;;;;;;4914948;29;20033;-77
2022/05/12 13:09:25;;;;;;;11.25;3.00;;;;;;;;;;4915002;29;20128;-75
2022/05/12 13:12:05;;;;;;;6.13;3.30;;;;;;;;;;4900044;29;20029;-77
2022/05/12 13:14:42;;;;;;;4.30;2.80;;;;;;;;;;4901027;29;20478;-87
2022/05/12 13:17:22;;;;;;;8.93;3.00;;;;;;;;;;4899708;29;20033;-87
2022/05/12 13:20:01;;;;;;;4.78;2.90;;;;;;;;;;4901269;29;20304;-88
2022/05/12 13:22:27;;;;;;;3.47;2.78;;;;;;;;;;4899794;29;20060;-85
2022/05/12 13:24:54;;;;;;;6.43;2.85;;;;;;;;;;4899903;29;20028;-84
2022/05/12 13:27:22;;;;;;;10.35;2.90;;;;;;;;;;5300919;23;20545;-84
2022/05/12 13:29:48;;;;;;;5.95;3.10;;;;;;;;;;4914490;29;20033;-85
2022/05/12 13:32:33;;;;;;;4.53;3.03;;;;;;;;;;4899182;29;20067;-85
2022/05/12 13:35:04;;;;;;;7.30;2.75;;;;;;;;;;4900057;29;20036;-84
2022/05/12 13:37:31;;;;;;;5.28;2.70;;;;;;;;;;4900130;29;20028;-85
2022/05/12 13:39:59;;;;;;;3.70;2.50;;;;;;;;;;4898449;29;20040;-80
2022/05/12 13:42:29;;;;;;;6.63;2.95;;;;;;;;;;4898398;29;20044;-80
2022/05/12 13:44:56;;;;;;;3.47;2.55;;;;;;;;;;4914216;29;20392;-82
2022/05/12 13:47:28;;;;;;;5.10;2.70;;;;;;;;;;4904482;29;20032;-83
2022/05/12 13:49:55;;;;;;;4.53;2.90;;;;;;;;;;4898843;29;20099;-82
2022/05/12 13:52:22;;;;;;;5.60;2.80;;;;;;;;;;4898613;29;20515;-82
2022/05/12 13:54:54;;;;;;;7.32;2.95;;;;;;;;;;4899588;29;20029;-82
2022/05/12 13:57:35;;;;;;;6.47;2.83;;;;;;;;;;4897871;29;20035;-83
2022/05/12 14:00:11;;;;;;;5.65;2.90;;;;;;;;;;4921443;29;20033;-88
2022/05/12 14:02:43;;;;;;;5.93;2.78;;;;;;;;;;4923067;29;20516;-82
2022/05/12 14:05:14;;;;;;;7.05;2.72;;;;;;;;;;4903156;29;20547;-87
2022/05/12 14:07:41;;;;;;;4.73;2.90;;;;;;;;;;4881385;29;20025;-86
2022/05/12 14:10:31;;;;;;;5.70;2.83;;;;;;;;;;4910483;29;20032;-83
2022/05/12 14:21:19;;;;;;;8.05;3.20;;;;;;;;;;4880680;29;20088;-83
2022/05/12 14:23:45;;;;;;;7.20;2.90;;;;;;;;;;4895354;29;20055;-84
2022/05/12 14:26:11;;;;;;;6.53;2.88;;;;;;;;;;4899152;29;20100;-82
2022/05/12 14:28:37;;;;;;;3.85;2.60;;;;;;;;;;4913704;29;20131;-83
2022/05/12 14:31:05;;;;;;;5.65;2.78;;;;;;;;;;4921085;29;20083;-85
2022/05/12 14:33:32;;;;;;;4.85;2.60;;;;;;;;;;4898361;29;20032;-79
2022/05/12 14:35:58;;;;;;;5.38;2.70;;;;;;;;;;4898409;29;20032;-82
2022/05/12 14:38:25;;;;;;;5.57;2.88;;;;;;;;;;4923114;29;20111;-82
2022/05/12 14:40:51;;;;;;;7.43;3.10;;;;;;;;;;4898810;29;20036;-82
2022/05/12 14:43:17;;;;;;;7.00;2.83;;;;;;;;;;4898978;29;20070;-84
2022/05/12 14:45:44;;;;;;;6.03;3.00;;;;;;;;;;4897521;29;20028;-89
2022/05/12 14:48:10;;;;;;;5.70;3.00;;;;;;;;;;4899159;29;20072;-87
2022/05/12 14:50:37;;;;;;;6.70;3.35;;;;;;;;;;4898209;29;20021;-88
2022/05/12 14:53:08;;;;;;;6.50;3.13;;;;;;;;;;4897839;29;20124;-82
2022/05/12 14:55:38;;;;;;;7.93;2.90;;;;;;;;;;4899167;29;20419;-85
2022/05/12 14:58:04;;;;;;;10.63;2.60;;;;;;;;;;4897903;29;20084;-88
2022/05/12 15:00:31;;;;;;;6.25;2.88;;;;;;;;;;4897396;29;20500;-87
2022/05/12 15:02:57;;;;;;;5.13;2.65;;;;;;;;;;4897683;29;20028;-76
2022/05/12 15:05:24;;;;;;;6.57;2.80;;;;;;;;;;4896872;29;20032;-79
2022/05/12 15:07:50;;;;;;;5.90;3.25;;;;;;;;;;4898065;29;20029;-88
2022/05/12 15:10:17;;;;;;;10.98;3.13;;;;;;;;;;4897538;29;20504;-90
2022/05/12 15:12:43;;;;;;;6.38;3.33;;;;;;;;;;4899516;29;20028;-88
2022/05/12 15:15:11;;;;;;;6.18;2.55;;;;;;;;;;4902160;29;20111;-86
2022/05/12 15:17:37;;;;;;;3.85;2.97;;;;;;;;;;4897276;29;20028;-85
2022/05/12 15:20:05;;;;;;;6.15;3.00;;;;;;;;;;4913077;29;20124;-83
2022/05/12 15:22:31;;;;;;;8.32;3.45;;;;;;;;;;4898747;29;20478;-84
2022/05/12 15:24:58;;;;;;;4.75;2.60;;;;;;;;;;4913259;29;20028;-87
2022/05/12 15:30:30;;;;;;;8.43;3.03;;;;;;;;;;4898760;29;20039;-83
2022/05/12 15:32:56;;;;;;;5.18;2.72;;;;;;;;;;4897822;29;20059;-84
2022/05/12 15:35:23;;;;;;;5.28;2.83;;;;;;;;;;4898530;29;20100;-83
2022/05/12 15:37:49;;;;;;;7.78;3.38;;;;;;;;;;4897225;29;20504;-83
2022/05/12 15:40:18;;;;;;;10.15;2.95;;;;;;;;;;4897295;29;20036;-84
2022/05/12 15:42:44;;;;;;;8.80;3.35;;;;;;;;;;4898047;29;20060;-83
2022/05/12 15:45:11;;;;;;;7.72;2.95;;;;;;;;;;4896880;29;20033;-84
2022/05/12 15:47:41;;;;;;;5.25;3.30;;;;;;;;;;4898531;29;20107;-84
2022/05/12 15:50:12;;;;;;;6.55;3.40;;;;;;;;;;4912062;29;20394;-83
2022/05/12 15:52:41;;;;;;;4.75;3.25;;;;;;;;;;4912982;29;20031;-87
2022/05/12 15:55:08;;;;;;;9.15;3.20;;;;;;;;;;4898458;29;20389;-88
2022/05/12 15:57:34;;;;;;;5.50;2.65;;;;;;;;;;4898227;29;20080;-85
2022/05/12 16:00:00;;;;;;;4.70;3.00;;;;;;;;;;4913261;29;20508;-87
2022/05/12 16:02:26;;;;;;;7.15;3.38;;;;;;;;;;4912778;29;20037;-81
2022/05/12 16:04:53;;;;;;;5.90;3.10;;;;;;;;;;4912628;29;20503;-84
2022/05/12 16:07:20;;;;;;;7.63;3.08;;;;;;;;;;4912979;29;20036;-82
2022/05/12 16:09:50;;;;;;;5.13;2.92;;;;;;;;;;4898323;29;20028;-82
2022/05/12 16:14:56;;;;;;;3.60;2.92;;;;;;;;;;4898258;29;20080;-81
2022/05/12 16:17:22;;;;;;;4.72;2.88;;;;;;;;;;4913223;29;20367;-87
2022/05/12 16:19:49;;;;;;;5.63;2.92;;;;;;;;;;4912901;29;20227;-86
2022/05/12 16:22:16;;;;;;;7.22;3.53;;;;;;;;;;4900909;29;20032;-84
2022/05/12 16:24:42;;;;;;;7.05;3.00;;;;;;;;;;4901531;29;20024;-84
2022/05/12 16:27:08;;;;;;;5.90;2.95;;;;;;;;;;4900787;29;20044;-84
2022/05/12 16:29:41;;;;;;;6.80;3.15;;;;;;;;;;4900552;29;20039;-82
2022/05/12 16:32:10;;;;;;;3.90;3.08;;;;;;;;;;4899907;29;20028;-87
2022/05/12 16:34:37;;;;;;;3.72;2.67;;;;;;;;;;4901497;29;20028;-82
2022/05/12 16:37:04;;;;;;;5.97;2.83;;;;;;;;;;4900085;29;20033;-83
2022/05/12 16:39:30;;;;;;;6.90;3.10;;;;;;;;;;4901475;29;20033;-81
2022/05/12 16:41:56;;;;;;;7.47;3.45;;;;;;;;;;4900147;29;20044;-81
2022/05/12 16:44:24;;;;;;;6.03;3.22;;;;;;;;;;4900068;29;20029;-83
2022/05/12 16:46:57;;;;;;;8.55;3.20;;;;;;;;;;4900046;29;20108;-86
2022/05/12 16:49:25;;;;;;;5.68;2.70;;;;;;;;;;4901508;29;20025;-80
2022/05/12 16:51:52;;;;;;;6.05;2.83;;;;;;;;;;4901898;29;20459;-82
2022/05/12 16:54:20;;;;;;;4.40;2.70;;;;;;;;;;4899652;29;20025;-90
2022/05/12 16:56:46;;;;;;;6.85;3.50;;;;;;;;;;4899812;29;20039;-82
2022/05/12 16:59:12;;;;;;;4.03;3.03;;;;;;;;;;4900049;29;20033;-81
2022/05/12 17:01:38;;;;;;;4.63;3.30;;;;;;;;;;4900938;29;20036;-88
2022/05/12 17:04:05;;;;;;;7.25;3.25;;;;;;;;;;4899544;29;20033;-84
2022/05/12 17:06:31;;;;;;;5.32;3.10;;;;;;;;;;4899318;29;20363;-87
2022/05/12 17:08:57;;;;;;;5.45;2.90;;;;;;;;;;4899436;29;20123;-83
2022/05/12 17:11:24;;;;;;;7.65;3.15;;;;;;;;;;4900711;29;20032;-83
2022/05/12 17:13:50;;;;;;;6.03;3.03;;;;;;;;;;4899412;29;20033;-84
2022/05/12 17:16:16;;;;;;;5.03;3.38;;;;;;;;;;4903441;29;20025;-85
2022/05/12 17:18:45;;;;;;;5.80;3.13;;;;;;;;;;4899371;29;20093;-84
2022/05/12 17:21:21;;;;;;;4.25;3.50;;;;;;;;;;4910137;29;20498;-82
2022/05/12 17:23:48;;;;;;;6.70;3.13;;;;;;;;;;4910392;29;20033;-81
2022/05/12 17:26:14;;;;;;;7.22;3.70;;;;;;;;;;4914677;29;20032;-84
2022/05/12 17:28:40;;;;;;;7.70;3.38;;;;;;;;;;4900158;29;20109;-84
2022/05/12 17:31:07;;;;;;;5.93;3.10;;;;;;;;;;4900233;29;20038;-83
2022/05/12 17:33:33;;;;;;;7.78;3.30;;;;;;;;;;4899463;29;20488;-84
2022/05/12 17:35:59;;;;;;;7.80;3.38;;;;;;;;;;4899354;29;20039;-83
2022/05/12 17:38:25;;;;;;;11.52;4.15;;;;;;;;;;4900082;29;20474;-87
2022/05/12 17:40:54;;;;;;;8.82;3.40;;;;;;;;;;4915344;29;20659;-83
2022/05/12 17:43:21;;;;;;;5.20;3.40;;;;;;;;;;4901490;29;20584;-82
2022/05/12 17:45:49;;;;;;;7.60;3.83;;;;;;;;;;4900122;29;20103;-82
2022/05/12 17:48:15;;;;;;;7.03;3.80;;;;;;;;;;4915882;29;20055;-92
2022/05/12 17:50:42;;;;;;;5.43;4.00;;;;;;;;;;4913218;29;20036;-82
2022/05/12 17:53:08;;;;;;;11.18;3.90;;;;;;;;;;4919540;29;20032;-80
2022/05/12 17:55:43;;;;;;;8.73;4.00;;;;;;;;;;4899490;29;20104;-79
2022/05/12 17:58:10;;;;;;;10.07;4.18;;;;;;;;;;4924946;29;20165;-88
2022/05/12 18:00:36;;;;;;;8.47;3.53;;;;;;;;;;4927697;29;20135;-77
2022/05/12 18:03:03;;;;;;;7.05;3.72;;;;;;;;;;4903824;29;20043;-86
2022/05/12 18:05:29;;;;;;;9.95;4.05;;;;;;;;;;4900269;29;20017;-83
2022/05/12 18:07:55;;;;;;;5.63;3.90;;;;;;;;;;4899027;29;20130;-78
2022/05/12 18:10:22;;;;;;;7.25;4.68;;;;;;;;;;4907414;29;20020;-82
2022/05/12 18:12:49;;;;;;;10.60;6.00;;;;;;;;;;4913973;29;20131;-80
2022/05/12 18:15:17;;;;;;;9.48;6.13;;;;;;;;;;4899940;29;20025;-80
2022/05/12 18:17:44;;;;;;;10.32;7.35;;;;;;;;;;4899247;29;20088;-79
2022/05/12 18:20:11;;;;;;;10.30;6.93;;;;;;;;;;4898955;29;20401;-80
2022/05/12 18:22:38;;;;;;;13.43;6.63;;;;;;;;;;4898572;29;20036;-78
2022/05/12 18:25:05;;;;;;;8.10;4.90;;;;;;;;;;4898125;29;20052;-80
2022/05/12 18:27:31;;;;;;;6.88;4.85;;;;;;;;;;4898237;29;20052;-81
2022/05/12 18:29:57;;;;;;;6.45;4.15;;;;;;;;;;4911385;29;20060;-79
2022/05/12 18:32:23;;;;;;;8.07;4.80;;;;;;;;;;4898460;29;20029;-90
2022/05/12 18:34:55;;;;;;;8.45;4.97;;;;;;;;;;4904344;29;20024;-89
2022/05/12 18:37:24;;;;;;;9.23;4.82;;;;;;;;;;4900415;29;20029;-85
2022/05/12 18:39:51;;;;;;;5.43;4.30;;;;;;;;;;4899342;29;20033;-91
2022/05/12 18:42:18;;;;;;;10.40;4.50;;;;;;;;;;4899118;29;20092;-78
2022/05/12 18:44:44;;;;;;;6.20;4.70;;;;;;;;;;4898627;29;20028;-82
2022/05/12 18:47:11;;;;;;;9.02;5.20;;;;;;;;;;4898470;29;20035;-79
2022/05/12 18:49:37;;;;;;;9.00;4.68;;;;;;;;;;4898098;29;20456;-86
2022/05/12 18:52:03;;;;;;;7.78;4.47;;;;;;;;;;4899182;29;20367;-86
2022/05/12 18:54:31;;;;;;;6.43;4.55;;;;;;;;;;4897868;29;20020;-80
2022/05/12 18:56:58;;;;;;;7.68;4.63;;;;;;;;;;4898560;29;20028;-81
2022/05/12 18:59:27;;;;;;;8.07;4.50;;;;;;;;;;4909551;29;20124;-79
2022/05/12 19:01:55;;;;;;;7.28;4.68;;;;;;;;;;4893615;29;20041;-79
2022/05/12 19:04:22;;;;;;;8.40;5.15;;;;;;;;;;4897801;29;20055;-81
2022/05/12 19:06:48;;;;;;;9.50;5.07;;;;;;;;;;4897998;29;20397;-79
2022/05/12 19:09:14;;;;;;;10.68;4.80;;;;;;;;;;4897904;29;20024;-80
2022/05/12 19:11:40;;;;;;;5.38;4.57;;;;;;;;;;4912425;29;20056;-81
2022/05/12 19:14:07;;;;;;;7.38;4.20;;;;;;;;;;4912902;29;20439;-79
2022/05/12 19:16:33;;;;;;;6.45;4.32;;;;;;;;;;4914407;29;20035;-93
2022/05/12 19:18:59;;;;;;;6.15;4.00;;;;;;;;;;4913463;29;20056;-80
2022/05/12 19:21:26;;;;;;;5.72;4.60;;;;;;;;;;4899423;29;20037;-80
2022/05/12 19:23:52;;;;;;;7.07;4.68;;;;;;;;;;4898618;29;20028;-88
2022/05/12 19:26:18;;;;;;;6.78;4.55;;;;;;;;;;4913375;29;20036;-89
2022/05/12 19:28:44;;;;;;;6.57;4.63;;;;;;;;;;4910272;29;20060;-87
2022/05/12 19:31:11;;;;;;;6.95;4.68;;;;;;;;;;4879607;29;20030;-81
2022/05/12 19:33:37;;;;;;;6.38;4.53;;;;;;;;;;4879764;29;20032;-81
2022/05/12 19:36:04;;;;;;;6.30;4.55;;;;;;;;;;4909807;29;20097;-85
2022/05/12 19:38:30;;;;;;;8.77;4.53;;;;;;;;;;4879936;29;20483;-81
2022/05/12 19:40:57;;;;;;;8.98;4.70;;;;;;;;;;4909733;29;20093;-81
2022/05/12 19:43:23;;;;;;;8.10;4.75;;;;;;;;;;4880011;29;20025;-85
2022/05/12 19:45:50;;;;;;;7.88;4.95;;;;;;;;;;4911125;29;20037;-81
2022/05/12 19:48:22;;;;;;;7.20;4.53;;;;;;;;;;4879136;29;20065;-78
2022/05/12 19:50:48;;;;;;;8.82;4.95;;;;;;;;;;4909476;29;20063;-79
2022/05/12 19:53:15;;;;;;;8.25;4.25;;;;;;;;;;4909948;29;20028;-78
2022/05/12 19:55:41;;;;;;;9.02;4.97;;;;;;;;;;4910024;29;20057;-84
2022/05/12 19:58:09;;;;;;;6.80;4.88;;;;;;;;;;4914006;29;20394;-80
2022/05/12 20:00:36;;;;;;;8.55;5.05;;;;;;;;;;4913097;29;20089;-77
2022/05/12 20:03:03;;;;;;;8.38;5.05;;;;;;;;;;4912944;29;20080;-78
2022/05/12 20:05:30;;;;;;;8.95;5.10;;;;;;;;;;4913387;29;20063;-79
2022/05/12 20:08:02;;;;;;;6.90;4.93;;;;;;;;;;4913031;29;20505;-81
2022/05/12 20:10:30;;;;;;;7.82;5.13;;;;;;;;;;4913649;29;20165;-79
2022/05/12 20:12:57;;;;;;;7.35;5.07;;;;;;;;;;4913120;29;20075;-78
2022/05/12 20:15:26;;;;;;;7.57;5.20;;;;;;;;;;4913223;29;20029;-79
2022/05/12 20:18:13;;;;;;;7.88;5.38;;;;;;;;;;4913048;29;20029;-79